Time;durP1;ratioP1;P1;durP2;ratioP2;P2;SDS_P1;SDS_P2;PMS_P1;PMS_P2;Temp;Humidity;BMP_temperature;BMP_pressure;BME280_temperature;BME280_humidity;BME280_pressure;Samples;Min_cycle;Max_cycle;Signal;HPM_P1;HPM_P2
2022/11/02 00:01:15;;;;;;;8.43;4.53;;;;;;;6.86;100.00;101182.44;5041026;28;20221;-73
2022/11/02 00:03:41;;;;;;;6.40;4.37;;;;;;;6.88;100.00;101185.88;5039478;28;20202;-73
2022/11/02 00:06:08;;;;;;;5.40;3.87;;;;;;;6.75;100.00;101185.91;5044823;28;20230;-73
2022/11/02 00:08:35;;;;;;;6.33;3.97;;;;;;;6.72;100.00;101190.22;5043035;28;20676;-73
2022/11/02 00:11:02;;;;;;;4.33;3.53;;;;;;;6.65;100.00;101191.97;5045151;28;20200;-73
2022/11/02 00:13:29;;;;;;;5.73;4.40;;;;;;;6.61;100.00;101187.66;5031983;28;20598;-73
2022/11/02 00:15:56;;;;;;;4.20;3.33;;;;;;;6.58;100.00;101193.69;5044508;28;20886;-73
2022/11/02 00:18:23;;;;;;;5.00;3.43;;;;;;;6.60;100.00;101197.16;5038906;28;20699;-73
2022/11/02 00:20:50;;;;;;;5.03;3.90;;;;;;;6.61;100.00;101198.91;5037862;28;20585;-73
2022/11/02 00:23:17;;;;;;;5.03;3.13;;;;;;;6.62;100.00;101197.16;5027777;28;20199;-73
2022/11/02 00:25:48;;;;;;;4.50;3.47;;;;;;;6.63;100.00;101193.69;5044609;28;20224;-73
2022/11/02 00:28:15;;;;;;;4.63;3.03;;;;;;;6.64;100.00;101204.06;5048216;28;20195;-73
2022/11/02 00:30:43;;;;;;;4.63;2.87;;;;;;;6.68;100.00;101202.31;5017945;28;20206;-73
2022/11/02 00:33:09;;;;;;;3.77;3.00;;;;;;;6.63;100.00;101198.88;5041969;28;20210;-73
2022/11/02 00:35:37;;;;;;;4.70;3.07;;;;;;;6.67;100.00;101203.19;5041520;28;20215;-73
2022/11/02 00:38:04;;;;;;;7.53;3.37;;;;;;;6.70;100.00;101202.31;5021145;28;20322;-73
2022/11/02 00:40:31;;;;;;;6.07;3.17;;;;;;;6.69;100.00;101198.03;5043586;28;20206;-73
2022/11/02 00:42:59;;;;;;;3.73;2.80;;;;;;;6.70;100.00;101204.91;5028106;28;20219;-73
2022/11/02 00:45:26;;;;;;;4.47;3.43;;;;;;;6.68;100.00;101207.50;5023077;28;20678;-73
2022/11/02 00:47:53;;;;;;;5.53;2.90;;;;;;;6.67;100.00;101207.53;5029426;28;20526;-73
2022/11/02 00:50:19;;;;;;;4.23;2.87;;;;;;;6.62;100.00;101205.78;5045533;28;20832;-73
2022/11/02 00:52:46;;;;;;;5.07;3.07;;;;;;;6.60;100.00;101204.94;5047802;28;20219;-73
2022/11/02 00:55:14;;;;;;;6.60;3.17;;;;;;;6.56;100.00;101203.22;5040079;28;20610;-73
2022/11/02 00:57:42;;;;;;;4.13;3.00;;;;;;;6.52;100.00;101203.19;5040453;28;20181;-73
2022/11/02 01:00:13;;;;;;;4.20;2.60;;;;;;;6.48;100.00;101206.66;5026339;28;20199;-73
2022/11/02 01:02:40;;;;;;;4.67;2.67;;;;;;;6.47;100.00;101205.78;5021651;28;20200;-73
2022/11/02 01:05:08;;;;;;;4.10;2.67;;;;;;;6.41;100.00;101196.28;5016094;28;20222;-73
2022/11/02 01:07:36;;;;;;;5.33;3.07;;;;;;;6.42;100.00;101202.31;5030290;28;20230;-73
2022/11/02 01:10:05;;;;;;;4.03;3.10;;;;;;;6.41;100.00;101198.88;5010355;28;20714;-73
2022/11/02 01:12:31;;;;;;;3.37;2.43;;;;;;;6.36;100.00;101198.00;5028288;28;20664;-73
2022/11/02 01:14:58;;;;;;;4.40;2.07;;;;;;;6.39;100.00;101198.03;5023416;28;20239;-73
2022/11/02 01:17:26;;;;;;;3.80;2.43;;;;;;;6.38;100.00;101195.44;5048237;28;20211;-73
2022/11/02 01:19:52;;;;;;;3.67;2.70;;;;;;;6.34;100.00;101201.47;5033049;28;20191;-73
2022/11/02 01:22:19;;;;;;;3.20;2.90;;;;;;;6.28;100.00;101197.16;5030278;28;20598;-73
2022/11/02 01:24:45;;;;;;;5.20;2.97;;;;;;;6.25;100.00;101202.34;5047651;28;20215;-73
2022/11/02 01:27:12;;;;;;;4.00;2.83;;;;;;;6.25;100.00;101210.97;5050051;28;20203;-73
2022/11/02 01:29:38;;;;;;;3.97;2.60;;;;;;;6.20;100.00;101204.06;5038704;28;20204;-73
2022/11/02 01:32:05;;;;;;;4.73;2.23;;;;;;;6.16;100.00;101204.91;5050820;28;20203;-73
2022/11/02 01:34:34;;;;;;;4.93;2.60;;;;;;;6.17;100.00;101207.47;5034005;28;20227;-73
2022/11/02 01:37:00;;;;;;;3.93;2.97;;;;;;;6.17;100.00;101201.44;5027618;28;20211;-73
2022/11/02 01:39:26;;;;;;;5.57;2.80;;;;;;;6.14;100.00;101207.50;5046253;28;20203;-73
2022/11/02 01:41:54;;;;;;;6.37;3.37;;;;;;;6.14;100.00;101202.31;5030969;28;20249;-73
2022/11/02 01:44:27;;;;;;;11.63;3.20;;;;;;;6.14;100.00;101191.97;5026068;28;20683;-73
2022/11/02 01:46:58;;;;;;;5.40;2.47;;;;;;;6.15;100.00;101193.69;5029456;28;20206;-73
2022/11/02 01:49:25;;;;;;;4.73;2.63;;;;;;;6.13;100.00;101197.13;5032622;28;20213;-73
2022/11/02 01:51:59;;;;;;;5.53;2.93;;;;;;;6.10;100.00;101195.41;5044151;28;20199;-72
2022/11/02 01:54:30;;;;;;;4.13;2.40;;;;;;;6.11;100.00;101186.78;5029785;28;20720;-73
2022/11/02 01:57:01;;;;;;;3.67;2.83;;;;;;;6.05;100.00;101186.75;5034274;28;20226;-72
2022/11/02 01:59:32;;;;;;;3.63;2.60;;;;;;;6.03;100.00;101189.38;5027936;28;20204;-73
2022/11/02 02:02:00;;;;;;;4.60;2.57;;;;;;;6.02;100.00;101182.44;5032262;28;20313;-73
2022/11/02 02:04:28;;;;;;;3.67;2.90;;;;;;;6.01;100.00;101183.31;5024410;28;20248;-73
2022/11/02 02:06:58;;;;;;;3.03;2.53;;;;;;;5.98;100.00;101183.31;5028959;28;20203;-73
2022/11/02 02:09:26;;;;;;;3.57;2.43;;;;;;;6.01;100.00;101178.13;5032085;28;20713;-73
2022/11/02 02:11:52;;;;;;;3.53;2.30;;;;;;;6.01;100.00;101185.88;5026299;28;20518;-73
2022/11/02 02:14:21;;;;;;;7.33;2.97;;;;;;;5.95;100.00;101185.00;5029364;28;20258;-73
2022/11/02 02:17:06;;;;;;;3.87;2.90;;;;;;;5.94;100.00;101180.69;5022438;28;20630;-73
2022/11/02 02:19:41;;;;;;;11.57;2.73;;;;;;;5.94;100.00;101180.69;5026072;28;20203;-73
2022/11/02 02:22:22;;;;;;;4.87;3.00;;;;;;;5.97;100.00;101186.75;5028466;28;20230;-73
2022/11/02 02:24:56;;;;;;;4.53;2.70;;;;;;;5.92;100.00;101179.81;5044896;28;20219;-73
2022/11/02 02:27:29;;;;;;;3.50;2.50;;;;;;;5.98;100.00;101190.19;5031138;28;20199;-73
2022/11/02 02:30:08;;;;;;;4.53;2.17;;;;;;;6.02;100.00;101189.38;5049669;28;20550;-73
2022/11/02 02:32:40;;;;;;;3.60;2.73;;;;;;;6.01;100.00;101187.63;5030125;28;20644;-73
2022/11/02 02:35:23;;;;;;;3.90;2.30;;;;;;;5.86;100.00;101185.84;5041806;28;20222;-73
2022/11/02 02:37:55;;;;;;;3.37;2.77;;;;;;;5.86;100.00;101184.13;5031486;28;20215;-73
2022/11/02 02:40:27;;;;;;;4.67;2.43;;;;;;;5.87;100.00;101185.84;5021128;28;20279;-73
2022/11/02 02:42:58;;;;;;;3.87;2.80;;;;;;;5.88;100.00;101184.13;5027817;28;20556;-73
2022/11/02 02:45:33;;;;;;;7.03;3.40;;;;;;;5.76;100.00;101173.75;5030944;28;20692;-73
2022/11/02 02:48:03;;;;;;;3.33;2.43;;;;;;;5.76;100.00;101184.09;5020678;28;20285;-72
2022/11/02 02:50:34;;;;;;;6.00;2.67;;;;;;;5.74;100.00;101173.75;5047794;28;20195;-72
2022/11/02 02:53:05;;;;;;;3.13;2.23;;;;;;;5.74;100.00;101175.47;5028459;28;20210;-73
2022/11/02 02:55:37;;;;;;;7.00;3.00;;;;;;;5.81;100.00;101177.22;5057685;23;20235;-74
2022/11/02 02:58:07;;;;;;;6.27;2.47;;;;;;;5.71;100.00;101175.44;5023659;28;20200;-75
2022/11/02 03:00:36;;;;;;;7.20;2.83;;;;;;;5.60;100.00;101171.09;5032627;28;20203;-72
2022/11/02 03:03:05;;;;;;;3.10;2.50;;;;;;;5.53;100.00;101168.50;5032624;28;20211;-72
2022/11/02 03:05:33;;;;;;;4.97;2.57;;;;;;;5.61;100.00;101171.97;5026461;28;20239;-73
2022/11/02 03:08:05;;;;;;;7.90;2.67;;;;;;;5.59;100.00;101165.91;5026251;28;20264;-72
2022/11/02 03:10:34;;;;;;;5.20;2.67;;;;;;;5.59;100.00;101176.28;5022834;28;20267;-75
2022/11/02 03:13:18;;;;;;;6.90;2.50;;;;;;;5.55;100.00;101172.81;5020367;28;20222;-74
2022/11/02 03:15:51;;;;;;;4.83;2.97;;;;;;;5.49;100.00;101178.84;5026032;28;20291;-73
2022/11/02 03:18:29;;;;;;;3.50;2.37;;;;;;;5.52;100.00;101177.09;5042986;28;20188;-74
2022/11/02 03:21:05;;;;;;;5.60;2.90;;;;;;;5.53;100.00;101176.28;5028294;28;20291;-73
2022/11/02 03:23:37;;;;;;;6.67;2.80;;;;;;;5.50;100.00;101179.69;5029378;28;20662;-73
2022/11/02 03:26:10;;;;;;;6.83;2.60;;;;;;;5.48;100.00;101181.41;5012542;28;20383;-73
2022/11/02 03:28:53;;;;;;;5.40;2.63;;;;;;;5.45;100.00;101183.97;5012308;28;20200;-73
2022/11/02 03:31:32;;;;;;;5.23;2.63;;;;;;;5.43;100.00;101173.63;5013850;28;20215;-73
2022/11/02 03:34:05;;;;;;;8.90;3.00;;;;;;;5.47;100.00;101174.50;5012510;28;20207;-73
2022/11/02 03:36:37;;;;;;;4.10;2.67;;;;;;;5.50;100.00;101172.81;5018773;28;20324;-73
2022/11/02 03:39:07;;;;;;;3.23;2.60;;;;;;;5.56;100.00;101176.25;5013819;28;20688;-73
2022/11/02 03:41:40;;;;;;;7.23;3.13;;;;;;;5.57;100.00;101186.59;5023213;28;20215;-73
2022/11/02 03:44:11;;;;;;;4.53;2.97;;;;;;;5.63;100.00;101178.88;5009074;28;20683;-73
2022/11/02 03:46:41;;;;;;;5.80;2.77;;;;;;;5.65;100.00;101184.91;5005006;28;20224;-73
2022/11/02 03:49:13;;;;;;;4.50;3.27;;;;;;;5.72;100.00;101190.09;4997678;28;20200;-73
2022/11/02 03:51:43;;;;;;;3.80;2.80;;;;;;;5.74;100.00;101178.91;5007877;28;20782;-73
2022/11/02 03:54:18;;;;;;;8.60;3.73;;;;;;;5.81;100.00;101177.22;5005207;28;20598;-73
2022/11/02 03:56:48;;;;;;;6.37;3.10;;;;;;;5.90;100.00;101173.78;4996324;28;20237;-73
2022/11/02 03:59:15;;;;;;;6.67;3.47;;;;;;;6.01;100.00;101175.53;5019337;28;20200;-73
2022/11/02 04:01:47;;;;;;;4.50;3.10;;;;;;;6.06;100.00;101171.22;5007822;28;20200;-73
2022/11/02 04:04:14;;;;;;;9.80;3.73;;;;;;;6.04;100.00;101178.13;5007024;28;20199;-73
2022/11/02 04:06:44;;;;;;;3.73;3.07;;;;;;;6.04;100.00;101182.47;5008752;28;20247;-73
2022/11/02 04:09:12;;;;;;;3.93;3.20;;;;;;;6.05;100.00;101185.06;5025519;28;20193;-73
2022/11/02 04:14:39;;;;;;;6.80;3.17;;;;;;;6.07;100.00;101190.25;5010687;28;20203;-73
2022/11/02 04:20:10;;;;;;;4.47;3.30;;;;;;;6.03;100.00;101180.72;5005954;28;20195;-74
2022/11/02 04:25:21;;;;;;;12.10;3.60;;;;;;;6.07;100.00;101187.66;5024084;28;20227;-75
2022/11/02 04:28:08;;;;;;;4.23;3.03;;;;;;;6.11;100.00;101194.53;5041704;28;20215;-75
2022/11/02 04:30:38;;;;;;;4.00;2.70;;;;;;;6.16;100.00;101185.06;5023975;28;20224;-74
2022/11/02 04:36:00;;;;;;;5.17;3.07;;;;;;;6.16;100.00;101197.16;5022588;28;20232;-73
2022/11/02 04:38:39;;;;;;;5.83;3.10;;;;;;;6.14;100.00;101196.25;5022812;28;20207;-75
2022/11/02 04:43:54;;;;;;;3.93;3.17;;;;;;;6.14;100.00;101196.25;5017332;28;20200;-74
2022/11/02 04:46:21;;;;;;;4.07;2.73;;;;;;;6.14;100.00;101186.78;5020265;28;20227;-75
2022/11/02 04:48:50;;;;;;;4.13;2.77;;;;;;;6.15;100.00;101191.09;5017985;28;20261;-75
2022/11/02 04:51:19;;;;;;;3.30;2.80;;;;;;;6.20;100.00;101191.09;5014110;28;20211;-75
2022/11/02 04:53:46;;;;;;;3.77;3.07;;;;;;;6.17;100.00;101185.91;5014793;28;20197;-74
2022/11/02 04:56:13;;;;;;;8.00;3.00;;;;;;;6.14;100.00;101179.03;5041013;28;20273;-74
2022/11/02 04:58:40;;;;;;;3.97;2.67;;;;;;;6.10;100.00;101181.59;5018868;28;20204;-74
2022/11/02 05:01:07;;;;;;;5.10;2.63;;;;;;;6.05;100.00;101181.56;5020462;28;20220;-74
2022/11/02 05:03:34;;;;;;;5.00;2.97;;;;;;;6.03;100.00;101193.66;5011528;28;20312;-74
2022/11/02 05:06:02;;;;;;;6.03;2.80;;;;;;;6.00;100.00;101183.31;5016665;28;20219;-74
2022/11/02 05:08:29;;;;;;;7.10;2.70;;;;;;;5.96;100.00;101176.41;5017849;28;20334;-73
2022/11/02 05:10:57;;;;;;;7.13;3.47;;;;;;;5.96;100.00;101179.88;5020352;28;20223;-75
2022/11/02 05:13:27;;;;;;;9.90;2.80;;;;;;;5.96;100.00;101179.88;5018466;28;20196;-73
2022/11/02 05:15:56;;;;;;;3.50;2.80;;;;;;;5.98;100.00;101187.59;5013781;28;20227;-73
2022/11/02 05:18:23;;;;;;;10.33;3.03;;;;;;;5.90;100.00;101189.31;5016350;28;20315;-75
2022/11/02 05:20:51;;;;;;;7.50;3.20;;;;;;;5.86;100.00;101193.63;5038106;28;20223;-74
2022/11/02 05:23:19;;;;;;;8.10;3.23;;;;;;;5.78;100.00;101193.56;5039610;28;20200;-73
2022/11/02 05:25:53;;;;;;;4.63;2.10;;;;;;;5.75;100.00;101195.28;5025222;28;20478;-74
2022/11/02 05:28:20;;;;;;;4.93;2.53;;;;;;;5.80;100.00;101198.75;5018843;28;20203;-74
2022/11/02 05:30:46;;;;;;;6.43;2.60;;;;;;;5.77;100.00;101194.44;5012644;28;20262;-75
2022/11/02 05:33:14;;;;;;;5.43;2.60;;;;;;;5.72;100.00;101198.75;5022145;28;20439;-74
2022/11/02 05:35:41;;;;;;;4.47;2.20;;;;;;;5.70;100.00;101197.88;5021146;28;20227;-73
2022/11/02 05:38:08;;;;;;;5.60;2.20;;;;;;;5.72;100.00;101196.16;5015425;28;20645;-75
2022/11/02 05:40:39;;;;;;;5.03;2.57;;;;;;;5.73;100.00;101204.78;5015315;28;20225;-75
2022/11/02 05:43:08;;;;;;;3.07;2.37;;;;;;;5.85;100.00;101194.47;5014956;28;20240;-73
2022/11/02 05:45:35;;;;;;;6.10;3.13;;;;;;;5.90;100.00;101203.09;5007364;28;20278;-74
2022/11/02 05:48:02;;;;;;;5.27;2.70;;;;;;;5.90;100.00;101195.34;5029523;28;20208;-73
2022/11/02 05:50:29;;;;;;;4.17;2.33;;;;;;;5.91;100.00;101197.06;5028480;28;20207;-73
2022/11/02 05:52:55;;;;;;;3.30;2.57;;;;;;;5.91;100.00;101196.19;5032610;28;20990;-74
2022/11/02 05:55:22;;;;;;;7.07;2.77;;;;;;;5.84;100.00;101191.03;5031789;28;20778;-75
2022/11/02 05:57:52;;;;;;;7.80;2.70;;;;;;;5.83;100.00;101202.22;5033288;28;20455;-74
2022/11/02 06:00:20;;;;;;;2.97;2.20;;;;;;;5.84;100.00;101206.53;5030593;28;20600;-75
2022/11/02 06:02:47;;;;;;;3.50;2.40;;;;;;;5.91;100.00;101206.53;5035696;28;20536;-75
2022/11/02 06:05:14;;;;;;;3.93;2.33;;;;;;;5.93;100.00;101210.88;5041495;28;20288;-74
2022/11/02 06:07:40;;;;;;;4.67;2.77;;;;;;;5.91;100.00;101209.13;5034880;28;20198;-75
2022/11/02 06:10:08;;;;;;;4.60;2.50;;;;;;;5.88;100.00;101210.00;5038631;28;20258;-74
2022/11/02 06:12:34;;;;;;;4.53;2.80;;;;;;;5.90;100.00;101207.41;5033877;28;20197;-74
2022/11/02 06:15:02;;;;;;;9.87;2.97;;;;;;;5.96;100.00;101210.03;5031501;28;20223;-75
2022/11/02 06:17:28;;;;;;;4.70;2.83;;;;;;;5.98;100.00;101210.91;5038710;28;20218;-75
2022/11/02 06:19:54;;;;;;;4.90;2.83;;;;;;;6.01;100.00;101205.75;5031973;28;20200;-74
2022/11/02 06:22:21;;;;;;;8.20;3.27;;;;;;;6.02;100.00;101208.34;5034825;28;20207;-75
2022/11/02 06:24:47;;;;;;;4.13;2.43;;;;;;;6.06;100.00;101214.38;5026486;28;20735;-74
2022/11/02 06:27:14;;;;;;;5.23;2.63;;;;;;;6.06;100.00;101214.38;5038726;28;20188;-73
2022/11/02 06:29:40;;;;;;;4.50;2.70;;;;;;;6.04;100.00;101210.94;5018038;28;20226;-74
2022/11/02 06:32:08;;;;;;;7.13;2.53;;;;;;;6.05;100.00;101216.13;5036065;28;20208;-74
2022/11/02 06:34:35;;;;;;;10.37;3.10;;;;;;;6.04;100.00;101213.53;5036268;28;20255;-75
2022/11/02 06:37:02;;;;;;;3.60;2.80;;;;;;;6.11;100.00;101215.25;5040400;28;20216;-73
2022/11/02 06:39:29;;;;;;;8.87;2.83;;;;;;;6.13;100.00;101223.03;5040827;28;20208;-75
2022/11/02 06:41:55;;;;;;;5.43;2.70;;;;;;;6.16;100.00;101223.03;5034375;28;20201;-75
2022/11/02 06:44:21;;;;;;;5.63;2.57;;;;;;;6.19;100.00;101218.72;5032947;28;20247;-74
2022/11/02 06:46:49;;;;;;;10.00;2.90;;;;;;;6.23;100.00;101220.47;5019192;28;20200;-74
2022/11/02 06:49:17;;;;;;;4.70;2.30;;;;;;;6.26;100.00;101222.16;5042513;28;20207;-75
2022/11/02 06:51:43;;;;;;;3.67;2.23;;;;;;;6.28;100.00;101224.75;5042274;28;20210;-74
2022/11/02 06:54:09;;;;;;;4.53;2.50;;;;;;;6.34;100.00;101227.38;5039993;28;20208;-75
2022/11/02 06:56:36;;;;;;;11.13;2.80;;;;;;;6.37;100.00;101225.66;5037187;28;20335;-75
2022/11/02 06:59:02;;;;;;;6.47;2.07;;;;;;;6.43;100.00;101228.22;5034754;28;20234;-75
2022/11/02 07:01:29;;;;;;;6.03;2.77;;;;;;;6.48;100.00;101219.63;5040592;28;20200;-73
2022/11/02 07:03:56;;;;;;;5.97;2.80;;;;;;;6.53;100.00;101223.94;5043215;28;20200;-74
2022/11/02 07:06:24;;;;;;;5.80;3.10;;;;;;;6.61;100.00;101223.91;5040605;28;20226;-73
2022/11/02 07:08:51;;;;;;;6.13;2.70;;;;;;;6.69;100.00;101217.00;5035206;28;20189;-75
2022/11/02 07:11:17;;;;;;;9.53;2.63;;;;;;;6.76;100.00;101216.16;5029999;28;20224;-72
2022/11/02 07:13:44;;;;;;;7.17;2.90;;;;;;;6.80;100.00;101220.44;5027431;28;20562;-74
2022/11/02 07:16:10;;;;;;;6.00;2.60;;;;;;;6.89;100.00;101216.97;5024212;28;20224;-74
2022/11/02 07:18:37;;;;;;;8.70;3.10;;;;;;;6.99;100.00;101217.84;5027372;28;20282;-74
2022/11/02 07:21:04;;;;;;;6.17;2.70;;;;;;;7.09;100.00;101214.38;5026818;28;20196;-74
2022/11/02 07:23:32;;;;;;;8.60;2.97;;;;;;;7.23;100.00;101227.31;5021284;28;20201;-74
2022/11/02 07:26:01;;;;;;;6.33;2.77;;;;;;;7.33;100.00;101225.53;5022292;28;20684;-74
2022/11/02 07:28:27;;;;;;;7.53;2.77;;;;;;;7.41;100.00;101228.97;5015932;28;20603;-74
2022/11/02 07:30:54;;;;;;;5.33;2.70;;;;;;;7.52;100.00;101232.38;5018246;28;20205;-74
2022/11/02 07:33:20;;;;;;;7.50;3.10;;;;;;;7.64;100.00;101228.03;5026204;28;20266;-74
2022/11/02 07:35:47;;;;;;;7.80;2.53;;;;;;;7.71;100.00;101230.56;5017253;28;20233;-74
2022/11/02 07:38:14;;;;;;;5.80;3.13;;;;;;;7.81;100.00;101222.72;5023842;28;20218;-74
2022/11/02 07:40:42;;;;;;;6.93;2.90;;;;;;;7.90;100.00;101233.09;5021906;28;20233;-74
2022/11/02 07:43:08;;;;;;;13.13;2.63;;;;;;;7.99;100.00;101220.06;5021674;28;20213;-74
2022/11/02 07:45:40;;;;;;;11.23;2.57;;;;;;;8.12;100.00;101236.41;5008724;28;20291;-74
2022/11/02 07:48:06;;;;;;;6.90;2.60;;;;;;;8.18;100.00;101235.50;5027484;28;20207;-74
2022/11/02 07:50:32;;;;;;;8.83;2.90;;;;;;;8.24;100.00;101236.34;5005789;28;20207;-75
2022/11/02 07:52:59;;;;;;;12.93;2.67;;;;;;;8.34;100.00;101238.00;5024820;28;20600;-75
2022/11/02 07:55:27;;;;;;;6.37;2.43;;;;;;;8.44;100.00;101232.75;5026382;28;20654;-75
2022/11/02 07:57:57;;;;;;;6.80;2.53;;;;;;;8.53;100.00;101233.56;5011178;28;20211;-75
2022/11/02 08:00:24;;;;;;;8.27;2.60;;;;;;;8.57;100.00;101230.94;5024482;28;20203;-74
2022/11/02 08:02:54;;;;;;;3.67;2.20;;;;;;;8.63;100.00;101233.47;5004453;28;20205;-75
2022/11/02 08:05:21;;;;;;;5.67;2.50;;;;;;;8.67;100.00;101235.16;5017166;28;20632;-75
2022/11/02 08:07:47;;;;;;;7.37;2.70;;;;;;;8.76;100.00;101235.13;5027469;28;20568;-75
2022/11/02 08:10:15;;;;;;;7.47;2.57;;;;;;;8.82;100.00;101219.44;5026947;28;20802;-75
2022/11/02 08:12:41;;;;;;;5.73;2.57;;;;;;;8.89;100.00;101238.47;5025816;28;20271;-75
2022/11/02 08:15:10;;;;;;;9.33;2.70;;;;;;;8.95;100.00;101233.19;5019052;28;20219;-75
2022/11/02 08:17:36;;;;;;;7.53;2.70;;;;;;;8.98;100.00;101230.56;5018747;28;20205;-74
2022/11/02 08:20:06;;;;;;;13.33;2.60;;;;;;;9.09;100.00;101228.72;5022150;28;20207;-74
2022/11/02 08:22:36;;;;;;;4.20;1.90;;;;;;;9.17;100.00;101238.19;5027112;28;20199;-75
2022/11/02 08:25:03;;;;;;;6.07;2.20;;;;;;;9.22;100.00;101242.47;5025482;28;20224;-74
2022/11/02 08:27:30;;;;;;;8.63;2.23;;;;;;;9.31;100.00;101240.66;5025537;28;20212;-75
2022/11/02 08:29:57;;;;;;;16.30;2.60;;;;;;;9.42;100.00;101233.56;5019215;28;20230;-75
2022/11/02 08:32:25;;;;;;;7.33;2.50;;;;;;;9.56;100.00;101241.22;5019863;28;20208;-74
2022/11/02 08:34:51;;;;;;;9.30;2.47;;;;;;;9.66;100.00;101235.88;5022916;28;20226;-74
2022/11/02 08:37:18;;;;;;;10.07;2.80;;;;;;;9.74;100.00;101238.38;5026324;28;20277;-75
2022/11/02 08:39:44;;;;;;;6.37;2.57;;;;;;;9.85;100.00;101233.03;5021309;28;20213;-72
2022/11/02 08:42:10;;;;;;;9.33;2.70;;;;;;;9.87;100.00;101226.06;5014393;28;20209;-75
2022/11/02 08:44:37;;;;;;;7.20;3.00;;;;;;;9.93;100.00;101241.59;5017448;28;20202;-74
2022/11/02 08:47:04;;;;;;;10.47;2.10;;;;;;;10.03;100.00;101237.97;5019591;28;20188;-75
2022/11/02 08:49:31;;;;;;;6.00;2.40;;;;;;;10.09;100.00;101236.19;5014317;28;20398;-75
2022/11/02 08:51:58;;;;;;;5.83;2.60;;;;;;;10.24;100.00;101249.00;5018744;28;20672;-75
2022/11/02 08:54:24;;;;;;;8.93;2.43;;;;;;;10.30;100.00;101246.28;5021158;28;20204;-74
2022/11/02 08:56:50;;;;;;;7.13;2.23;;;;;;;10.33;100.00;101243.66;5017520;28;20333;-75
2022/11/02 08:59:17;;;;;;;7.50;2.37;;;;;;;10.38;100.00;101243.59;5018488;28;20210;-73
2022/11/02 09:01:43;;;;;;;9.73;2.93;;;;;;;10.47;100.00;101250.44;5022298;28;20234;-75
2022/11/02 09:04:10;;;;;;;6.90;2.53;;;;;;;10.60;100.00;101260.59;5024050;28;20210;-75
2022/11/02 09:06:37;;;;;;;10.00;2.40;;;;;;;10.68;100.00;101244.00;5023677;28;20221;-75
2022/11/02 09:09:04;;;;;;;3.10;2.03;;;;;;;10.80;100.00;101256.84;5019668;28;20556;-75
2022/11/02 09:11:30;;;;;;;7.43;2.50;;;;;;;10.96;100.00;101249.59;5001195;28;20818;-75
2022/11/02 09:13:57;;;;;;;11.23;3.00;;;;;;;11.21;100.00;101265.66;5021039;28;20278;-75
2022/11/02 09:16:23;;;;;;;7.53;2.80;;;;;;;11.35;100.00;101261.03;5019897;28;20253;-75
2022/11/02 09:18:49;;;;;;;7.10;2.67;;;;;;;11.48;100.00;101256.44;5017372;28;20221;-75
2022/11/02 09:21:16;;;;;;;9.50;3.07;;;;;;;11.60;100.00;101265.78;5026993;28;20209;-74
2022/11/02 09:23:47;;;;;;;16.53;3.03;;;;;;;11.70;100.00;101262.09;5026429;28;20198;-72
2022/11/02 09:26:13;;;;;;;7.30;2.83;;;;;;;11.83;100.00;101267.06;5002543;28;20224;-75
2022/11/02 09:28:40;;;;;;;10.00;2.60;;;;;;;11.96;100.00;101276.41;5021239;28;20202;-75
2022/11/02 09:31:06;;;;;;;13.83;3.47;;;;;;;11.95;100.00;101268.59;5022420;28;20216;-75
2022/11/02 09:33:33;;;;;;;10.07;3.37;;;;;;;11.97;100.00;101261.56;5026461;28;20203;-73
2022/11/02 09:36:02;;;;;;;8.20;2.70;;;;;;;12.02;100.00;101259.72;5021549;28;20233;-73
2022/11/02 09:38:29;;;;;;;16.73;2.57;;;;;;;12.07;100.00;101263.09;5028679;28;20227;-75
2022/11/02 09:41:05;;;;;;;5.00;2.87;;;;;;;12.15;100.00;101270.75;5023062;28;20217;-74
2022/11/02 09:43:44;;;;;;;10.50;2.97;;;;;;;12.17;100.00;101268.97;5016936;28;20199;-74
2022/11/02 09:46:14;;;;;;;7.80;2.33;;;;;;;12.29;100.00;101269.56;5017752;28;20219;-75
2022/11/02 09:48:43;;;;;;;8.17;2.50;;;;;;;12.47;100.00;101265.66;5015215;28;20188;-74
2022/11/02 09:51:12;;;;;;;5.83;2.40;;;;;;;12.58;100.00;101265.41;5021135;28;20204;-75
2022/11/02 09:53:54;;;;;;;11.90;7.40;;;;;;;12.54;100.00;101271.59;5023019;28;20657;-75
2022/11/02 09:56:22;;;;;;;8.57;3.97;;;;;;;12.45;100.00;101283.16;5023755;28;20228;-75
2022/11/02 09:58:56;;;;;;;4.63;1.47;;;;;;;12.45;100.00;101279.66;5018880;28;20220;-75
2022/11/02 10:01:32;;;;;;;3.77;1.70;;;;;;;12.40;100.00;101276.28;5006662;28;20199;-74
2022/11/02 10:04:19;;;;;;;3.73;1.33;;;;;;;12.44;100.00;101275.34;5017996;28;20228;-75
2022/11/02 10:06:54;;;;;;;7.63;1.47;;;;;;;12.52;100.00;101275.13;5016120;28;20205;-74
2022/11/02 10:09:27;;;;;;;3.30;1.20;;;;;;;12.67;100.00;101270.38;5023874;28;20206;-75
2022/11/02 10:12:00;;;;;;;4.83;1.20;;;;;;;12.83;100.00;101285.72;5020903;28;20220;-74
2022/11/02 10:14:32;;;;;;;3.93;1.50;;;;;;;12.93;100.00;101279.38;5025694;28;20203;-73
2022/11/02 10:17:05;;;;;;;4.40;1.57;;;;;;;13.06;100.00;101278.13;5020919;28;20635;-75
2022/11/02 10:19:40;;;;;;;2.27;1.60;;;;;;;13.24;100.00;101279.44;5022272;28;20600;-74
2022/11/02 10:22:12;;;;;;;4.57;1.97;;;;;;;13.29;100.00;101273.19;5023107;28;20210;-74
2022/11/02 10:24:43;;;;;;;5.60;1.50;;;;;;;13.41;100.00;101281.59;5019350;28;20400;-74
2022/11/02 10:27:15;;;;;;;4.00;1.30;;;;;;;13.58;100.00;101273.28;5022262;28;20286;-74
2022/11/02 10:29:48;;;;;;;3.03;1.30;;;;;;;13.60;100.00;101273.25;5021595;28;20448;-74
2022/11/02 10:32:16;;;;;;;4.47;1.33;;;;;;;13.62;100.00;101264.41;5022420;28;20210;-74
2022/11/02 10:34:43;;;;;;;5.27;1.40;;;;;;;13.53;100.00;101276.94;5023025;28;20727;-74
2022/11/02 10:37:31;;;;;;;1.93;0.93;;;;;;;13.26;100.00;101277.63;5026913;28;20209;-74
2022/11/02 10:40:07;;;;;;;2.40;1.13;;;;;;;13.17;100.00;101277.84;5021288;28;20199;-72
2022/11/02 10:42:48;;;;;;;3.03;1.20;;;;;;;13.18;100.00;101279.56;5025492;28;20395;-74
2022/11/02 10:45:39;;;;;;;4.57;1.30;;;;;;;13.21;100.00;101274.25;5020641;28;20701;-74
2022/11/02 10:48:13;;;;;;;1.53;1.00;;;;;;;13.24;100.00;101283.78;5016514;28;20203;-74
2022/11/02 10:50:47;;;;;;;2.20;0.97;;;;;;;13.26;100.00;101277.63;5022666;28;20288;-74
2022/11/02 10:53:15;;;;;;;1.90;0.97;;;;;;;13.16;100.00;101284.00;5025914;28;20656;-74
2022/11/02 10:55:51;;;;;;;2.73;1.00;;;;;;;13.00;100.00;101288.78;5020432;28;20235;-74
2022/11/02 10:58:21;;;;;;;5.50;1.20;;;;;;;12.87;100.00;101274.25;5026128;28;20219;-73
2022/11/02 11:00:47;;;;;;;2.47;0.80;;;;;;;12.85;100.00;101278.69;5019994;28;20215;-72
2022/11/02 11:03:15;;;;;;;1.97;0.97;;;;;;;12.93;100.00;101281.09;5025170;28;20197;-74
2022/11/02 11:05:59;;;;;;;2.93;1.00;;;;;;;13.06;100.00;101285.13;5012101;28;20241;-74
2022/11/02 11:08:29;;;;;;;4.90;1.37;;;;;;;13.10;100.00;101278.91;5018878;28;20202;-74
2022/11/02 11:11:10;;;;;;;2.57;1.00;;;;;;;13.20;100.00;101287.38;5022123;28;20198;-74
2022/11/02 11:13:38;;;;;;;5.40;1.40;;;;;;;13.27;100.00;101283.69;5024075;28;20212;-73
2022/11/02 11:16:06;;;;;;;1.77;0.97;;;;;;;13.33;100.00;101293.19;5014696;28;20216;-71
2022/11/02 11:18:33;;;;;;;3.57;0.97;;;;;;;13.29;100.00;101288.91;5026264;28;20224;-74
2022/11/02 11:21:00;;;;;;;1.00;0.77;;;;;;;13.30;100.00;101285.38;5020407;28;20657;-74
2022/11/02 11:23:26;;;;;;;1.77;0.90;;;;;;;13.36;100.00;101298.34;5023946;28;20215;-74
2022/11/02 11:25:55;;;;;;;3.20;1.37;;;;;;;13.49;100.00;101291.88;5020748;28;20796;-73
2022/11/02 11:28:24;;;;;;;3.90;1.10;;;;;;;13.52;100.00;101293.53;5023279;28;20327;-71
2022/11/02 11:31:03;;;;;;;1.60;1.00;;;;;;;13.61;100.00;101295.91;5023530;28;20202;-74
2022/11/02 11:33:31;;;;;;;4.77;1.00;;;;;;;13.73;100.00;101307.81;5023737;28;20686;-72
2022/11/02 11:35:59;;;;;;;2.03;1.00;;;;;;;13.77;100.00;101294.59;5021788;28;20224;-73
2022/11/02 11:38:27;;;;;;;1.53;1.10;;;;;;;13.77;100.00;101286.72;5025432;28;20230;-73
2022/11/02 11:40:55;;;;;;;3.90;1.00;;;;;;;13.86;100.00;101292.56;5021001;28;20286;-73
2022/11/02 11:43:24;;;;;;;2.73;1.30;;;;;;;13.76;100.00;101287.59;5001364;28;20218;-73
2022/11/02 11:45:58;;;;;;;5.57;1.10;;;;;;;13.66;100.00;101287.91;5021907;28;20225;-73